Time;durP1;ratioP1;P1;durP2;ratioP2;P2;SDS_P1;SDS_P2;PMS_P1;PMS_P2;Temp;Humidity;BMP_temperature;BMP_pressure;BME280_temperature;BME280_humidity;BME280_pressure;Samples;Min_cycle;Max_cycle;Signal;HPM_P1;HPM_P2
2022/11/07 00:00:12;;;;;;;38.73;24.55;;;;;;;4.35;86.92;100868.69;1685885;84;25875;-85
2022/11/07 00:02:40;;;;;;;35.40;25.02;;;;;;;4.35;86.90;100867.36;1655942;84;25869;-85
2022/11/07 00:05:07;;;;;;;35.80;24.30;;;;;;;4.31;86.82;100859.34;1692139;84;27485;-84
2022/11/07 00:07:34;;;;;;;37.67;24.00;;;;;;;4.31;86.99;100855.37;1661759;84;25872;-85
2022/11/07 00:10:00;;;;;;;43.28;25.90;;;;;;;4.30;87.15;100854.19;1691774;84;25820;-84
2022/11/07 00:12:27;;;;;;;44.15;27.32;;;;;;;4.27;87.41;100843.85;1709376;83;25783;-84
2022/11/07 00:14:53;;;;;;;45.65;26.48;;;;;;;4.28;88.28;100841.05;1719632;82;25787;-84
2022/11/07 00:17:19;;;;;;;49.93;28.32;;;;;;;4.32;88.72;100825.20;1693202;84;28307;-84
2022/11/07 00:19:46;;;;;;;42.67;28.02;;;;;;;4.34;89.29;100823.25;1696477;84;25863;-84
2022/11/07 00:22:13;;;;;;;45.83;25.97;;;;;;;4.37;90.04;100819.00;1688655;84;26452;-85
2022/11/07 00:24:40;;;;;;;45.10;27.42;;;;;;;4.40;90.61;100812.58;1681475;84;25892;-84
2022/11/07 00:27:06;;;;;;;44.55;27.10;;;;;;;4.44;91.39;100808.18;1698374;84;25837;-85
2022/11/07 00:29:33;;;;;;;49.75;26.87;;;;;;;4.48;91.92;100804.26;1690716;84;27477;-84
2022/11/07 00:31:59;;;;;;;44.85;25.17;;;;;;;4.52;92.42;100802.98;1695444;84;25874;-84
2022/11/07 00:34:25;;;;;;;43.05;24.27;;;;;;;4.57;92.83;100807.88;1688512;84;25785;-85
2022/11/07 00:36:52;;;;;;;43.98;25.30;;;;;;;4.64;93.24;100813.77;1696935;84;26335;-85
2022/11/07 00:39:18;;;;;;;46.73;25.40;;;;;;;4.72;93.71;100818.38;1714952;83;25810;-84
2022/11/07 00:41:47;;;;;;;41.58;25.60;;;;;;;4.76;94.20;100813.13;1706749;82;27470;-85
2022/11/07 00:44:14;;;;;;;43.48;25.68;;;;;;;4.81;94.46;100821.98;1703486;82;25810;-85
2022/11/07 00:46:40;;;;;;;40.30;25.20;;;;;;;4.85;94.73;100830.84;1717998;82;25811;-85
2022/11/07 00:49:07;;;;;;;38.42;23.47;;;;;;;4.89;95.00;100824.26;1697354;84;25832;-84
2022/11/07 00:51:33;;;;;;;44.38;23.95;;;;;;;4.91;95.10;100824.95;1702037;82;25750;-84
2022/11/07 00:54:02;;;;;;;37.83;24.27;;;;;;;4.97;95.07;100820.86;1720938;82;27470;-85
2022/11/07 00:56:29;;;;;;;38.55;24.15;;;;;;;5.00;95.12;100825.41;1691537;84;25775;-84
2022/11/07 00:58:57;;;;;;;41.68;25.23;;;;;;;5.03;95.25;100830.41;1689727;83;25308;-84
2022/11/07 01:01:28;;;;;;;41.88;25.02;;;;;;;5.07;95.35;100827.00;1698511;83;26579;-85
2022/11/07 01:06:42;;;;;;;39.18;23.22;;;;;;;5.14;95.60;100830.23;1723917;82;28402;-84
2022/11/07 01:09:16;;;;;;;38.58;23.80;;;;;;;5.15;95.75;100827.94;1719940;82;26348;-84
2022/11/07 01:11:43;;;;;;;41.98;25.25;;;;;;;5.19;95.77;100835.11;1715631;82;25875;-84
2022/11/07 01:14:11;;;;;;;44.13;26.77;;;;;;;5.22;95.79;100832.98;1696335;84;25741;-84
2022/11/07 01:16:38;;;;;;;43.58;26.45;;;;;;;5.28;95.87;100831.58;1697970;84;26497;-84
2022/11/07 01:19:05;;;;;;;38.08;24.55;;;;;;;5.33;95.90;100827.97;1690700;84;26940;-84
2022/11/07 01:21:32;;;;;;;35.03;23.55;;;;;;;5.37;95.94;100828.86;1693036;84;25982;-84
2022/11/07 01:23:59;;;;;;;42.05;25.68;;;;;;;5.43;95.98;100827.45;1692878;84;25500;-84
2022/11/07 01:26:25;;;;;;;42.30;25.82;;;;;;;5.46;95.98;100826.65;1697645;84;26308;-84
2022/11/07 01:28:52;;;;;;;42.40;25.20;;;;;;;5.51;96.02;100824.04;1690798;84;26084;-84
2022/11/07 01:31:18;;;;;;;36.73;24.65;;;;;;;5.56;96.08;100821.78;1696526;84;27450;-84
2022/11/07 01:33:45;;;;;;;40.70;24.80;;;;;;;5.59;96.11;100805.52;1690954;84;26490;-84
2022/11/07 01:36:15;;;;;;;37.03;23.80;;;;;;;5.60;96.16;100792.59;1696678;84;25758;-84
2022/11/07 01:38:47;;;;;;;35.30;23.10;;;;;;;5.62;95.88;100787.97;1691756;84;26602;-85
2022/11/07 01:41:21;;;;;;;39.13;23.42;;;;;;;5.58;95.42;100785.27;1697577;84;26055;-85
2022/11/07 01:44:12;;;;;;;32.53;20.50;;;;;;;5.55;94.89;100781.08;1692947;84;28386;-84
2022/11/07 01:46:44;;;;;;;38.03;22.53;;;;;;;5.53;94.74;100780.88;1695423;84;25293;-84
2022/11/07 01:49:19;;;;;;;31.93;22.45;;;;;;;5.51;94.70;100782.37;1666867;84;25824;-84
2022/11/07 01:52:03;;;;;;;35.63;22.20;;;;;;;5.51;94.59;100782.37;1685165;84;25931;-85
2022/11/07 01:54:33;;;;;;;32.75;22.25;;;;;;;5.51;94.53;100778.39;1689122;84;25780;-85
2022/11/07 01:57:05;;;;;;;35.40;22.07;;;;;;;5.48;94.27;100778.19;1685272;84;27545;-86
2022/11/07 01:59:33;;;;;;;40.63;26.15;;;;;;;5.45;94.28;100773.16;1691925;84;26005;-84
2022/11/07 02:02:00;;;;;;;36.40;23.95;;;;;;;5.43;94.37;100760.52;1685997;84;26200;-85
2022/11/07 02:04:30;;;;;;;37.42;22.85;;;;;;;5.42;94.43;100757.55;1698250;84;26616;-85
2022/11/07 02:07:16;;;;;;;35.05;23.42;;;;;;;5.43;94.48;100754.40;1694344;84;25959;-85
2022/11/07 02:09:42;;;;;;;41.55;23.87;;;;;;;5.43;94.50;100750.41;1697513;84;27534;-85
2022/11/07 02:12:09;;;;;;;35.35;22.00;;;;;;;5.44;94.58;100746.75;1684769;84;25786;-85
2022/11/07 02:14:35;;;;;;;36.15;21.95;;;;;;;5.44;94.51;100740.11;1697785;84;26348;-85
2022/11/07 02:17:02;;;;;;;41.83;24.52;;;;;;;5.44;94.63;100734.31;1690328;84;25760;-85
2022/11/07 02:19:39;;;;;;;35.83;23.00;;;;;;;5.45;94.70;100724.02;1697006;84;25838;-84
2022/11/07 02:22:34;;;;;;;55.78;29.55;;;;;;;5.45;94.78;100725.86;1700103;84;28229;-85
2022/11/07 02:25:07;;;;;;;54.15;28.77;;;;;;;5.44;95.00;100713.55;1697600;84;26083;-84
2022/11/07 02:27:35;;;;;;;46.20;25.90;;;;;;;5.43;95.18;100706.58;1697519;84;25351;-84
2022/11/07 02:30:07;;;;;;;48.20;26.82;;;;;;;5.43;95.21;100699.94;1686293;84;26427;-85
2022/11/07 02:32:33;;;;;;;44.55;25.68;;;;;;;5.43;95.40;100698.09;1694156;84;25873;-84
2022/11/07 02:35:07;;;;;;;37.78;22.75;;;;;;;5.46;95.36;100695.15;1680600;84;28113;-85
2022/11/07 02:37:37;;;;;;;35.95;20.80;;;;;;;5.47;95.45;100701.30;1675949;83;25812;-85
2022/11/07 02:40:08;;;;;;;38.05;20.95;;;;;;;5.47;95.58;100702.64;1703950;83;25867;-84
2022/11/07 02:42:43;;;;;;;35.52;20.75;;;;;;;5.44;96.00;100684.33;1685532;84;26361;-85
2022/11/07 02:45:24;;;;;;;34.48;21.80;;;;;;;5.46;96.31;100685.02;1687949;84;26167;-84
2022/11/07 02:47:52;;;;;;;35.70;20.72;;;;;;;5.47;96.71;100670.75;1687479;84;27561;-84
2022/11/07 02:50:18;;;;;;;35.45;21.93;;;;;;;5.46;96.96;100665.93;1712224;81;25278;-84
2022/11/07 02:52:44;;;;;;;35.43;22.07;;;;;;;5.46;97.07;100661.94;1709451;83;25828;-84
2022/11/07 02:55:12;;;;;;;35.98;21.10;;;;;;;5.46;97.26;100655.30;1711274;82;25752;-84
2022/11/07 02:57:39;;;;;;;39.45;21.97;;;;;;;5.46;97.44;100653.13;1686072;85;25834;-85
2022/11/07 03:00:08;;;;;;;36.93;22.17;;;;;;;5.45;97.65;100660.26;1686347;85;27412;-84
2022/11/07 03:02:35;;;;;;;40.38;21.75;;;;;;;5.45;97.79;100660.78;1678760;84;26077;-85
2022/11/07 03:05:01;;;;;;;38.40;23.30;;;;;;;5.46;97.95;100663.27;1692554;84;25754;-85
2022/11/07 03:07:27;;;;;;;39.00;22.70;;;;;;;5.46;98.16;100654.46;1674399;84;25803;-85
2022/11/07 03:09:54;;;;;;;36.08;22.98;;;;;;;5.48;98.21;100661.78;1714983;83;26082;-85
2022/11/07 03:12:20;;;;;;;37.48;22.98;;;;;;;5.46;98.34;100659.29;1718428;83;27603;-85
2022/11/07 03:14:46;;;;;;;41.40;24.95;;;;;;;5.45;98.40;100658.13;1671945;83;25937;-85
2022/11/07 03:17:12;;;;;;;38.15;23.12;;;;;;;5.45;98.43;100670.08;1681264;83;25872;-85
2022/11/07 03:19:39;;;;;;;35.33;22.22;;;;;;;5.45;98.53;100670.08;1703928;82;25840;-84
2022/11/07 03:22:05;;;;;;;36.00;21.68;;;;;;;5.45;98.68;100668.75;1694348;83;26104;-85
2022/11/07 03:24:31;;;;;;;39.00;22.85;;;;;;;5.47;98.82;100669.43;1693865;83;28276;-85
2022/11/07 03:26:58;;;;;;;37.70;23.80;;;;;;;5.48;99.07;100669.27;1711101;82;26355;-84
2022/11/07 03:29:24;;;;;;;35.85;22.07;;;;;;;5.54;99.25;100670.98;1678886;84;25877;-85
2022/11/07 03:31:51;;;;;;;38.98;22.42;;;;;;;5.55;99.35;100669.98;1680607;83;25830;-85
2022/11/07 03:34:17;;;;;;;35.70;23.52;;;;;;;5.58;99.51;100676.33;1708448;82;25767;-85
2022/11/07 03:36:43;;;;;;;38.30;23.38;;;;;;;5.62;99.68;100668.39;1697550;84;27335;-85
2022/11/07 03:39:09;;;;;;;38.45;23.22;;;;;;;5.66;99.81;100675.91;1696131;84;25980;-84
2022/11/07 03:41:36;;;;;;;40.20;23.98;;;;;;;5.69;99.98;100674.25;1701321;84;25808;-84
2022/11/07 03:44:02;;;;;;;38.67;23.85;;;;;;;5.73;100.00;100672.95;1693199;84;25811;-85
2022/11/07 03:46:28;;;;;;;39.27;25.00;;;;;;;5.78;100.00;100660.05;1692302;84;25808;-84
2022/11/07 03:48:55;;;;;;;41.98;24.40;;;;;;;5.81;100.00;100663.73;1702500;84;27535;-85
2022/11/07 03:51:21;;;;;;;38.53;23.35;;;;;;;5.86;100.00;100664.64;1700055;84;25731;-85
2022/11/07 03:53:47;;;;;;;48.95;26.40;;;;;;;5.89;100.00;100665.64;1701323;84;25830;-85
2022/11/07 03:56:13;;;;;;;45.40;25.60;;;;;;;5.93;100.00;100667.84;1696971;84;26587;-85
2022/11/07 03:58:40;;;;;;;44.88;25.12;;;;;;;5.98;100.00;100664.72;1696342;84;25889;-85
2022/11/07 04:01:09;;;;;;;46.80;24.60;;;;;;;6.02;100.00;100664.25;1690488;84;27468;-85
2022/11/07 04:03:35;;;;;;;50.67;25.50;;;;;;;6.08;100.00;100656.98;1694574;84;25840;-85
2022/11/07 04:06:01;;;;;;;47.30;25.15;;;;;;;6.12;100.00;100658.81;1698393;84;25867;-85
2022/11/07 04:08:27;;;;;;;52.70;27.37;;;;;;;6.15;100.00;100658.52;1698545;84;26564;-85
2022/11/07 04:10:53;;;;;;;46.50;24.25;;;;;;;6.17;100.00;100658.70;1698798;84;25887;-85
2022/11/07 04:18:51;;;;;;;47.15;25.92;;;;;;;6.30;100.00;100640.98;1702176;84;25872;-85
2022/11/07 04:21:17;;;;;;;53.02;26.55;;;;;;;6.34;100.00;100641.48;1693884;84;25855;-85
2022/11/07 04:23:44;;;;;;;53.58;25.50;;;;;;;6.37;100.00;100640.70;1697339;84;25849;-85
2022/11/07 04:28:54;;;;;;;61.92;28.38;;;;;;;6.45;100.00;100633.23;1702142;84;26122;-85
2022/11/07 04:31:21;;;;;;;59.55;27.73;;;;;;;6.49;100.00;100635.42;1675023;84;25921;-85
2022/11/07 04:33:47;;;;;;;52.55;26.52;;;;;;;6.52;100.00;100628.95;1706404;84;25964;-85
2022/11/07 04:36:14;;;;;;;52.85;26.10;;;;;;;6.56;100.00;100626.30;1693555;84;25309;-86
2022/11/07 04:38:40;;;;;;;51.73;26.15;;;;;;;6.60;100.00;100619.66;1690694;83;27453;-85
2022/11/07 04:41:10;;;;;;;54.10;27.07;;;;;;;6.62;100.00;100614.52;1712360;83;25883;-84
2022/11/07 04:43:36;;;;;;;55.50;27.73;;;;;;;6.65;100.00;100612.85;1685360;84;26007;-85
2022/11/07 04:46:02;;;;;;;63.30;29.23;;;;;;;6.70;100.00;100613.70;1685399;85;26528;-85
2022/11/07 04:48:29;;;;;;;50.00;24.72;;;;;;;6.71;100.00;100614.89;1688427;84;25796;-85
2022/11/07 04:50:55;;;;;;;48.42;25.23;;;;;;;6.73;100.00;100610.23;1685661;84;27475;-85
2022/11/07 04:53:21;;;;;;;48.05;25.75;;;;;;;6.76;100.00;100607.23;1686189;84;25803;-85
2022/11/07 04:55:48;;;;;;;48.33;24.43;;;;;;;6.79;100.00;100599.42;1691196;84;25315;-85
2022/11/07 04:58:14;;;;;;;54.45;26.40;;;;;;;6.82;100.00;100603.92;1682877;84;25778;-85
2022/11/07 05:00:40;;;;;;;51.10;25.55;;;;;;;6.83;100.00;100594.11;1692816;84;25908;-85
2022/11/07 05:03:07;;;;;;;49.40;25.57;;;;;;;6.85;100.00;100594.78;1686404;84;27360;-84
2022/11/07 05:05:34;;;;;;;46.77;25.23;;;;;;;6.88;100.00;100587.81;1692319;84;25844;-85
2022/11/07 05:08:00;;;;;;;48.02;24.55;;;;;;;6.90;100.00;100589.31;1686535;84;25774;-85
2022/11/07 05:10:28;;;;;;;48.30;25.17;;;;;;;6.94;100.00;100589.81;1687252;84;25823;-85
2022/11/07 05:12:55;;;;;;;41.95;24.65;;;;;;;6.96;100.00;100587.33;1691188;84;25807;-85
2022/11/07 05:15:22;;;;;;;45.10;24.20;;;;;;;7.01;100.00;100589.50;1692533;84;28282;-85
2022/11/07 05:17:48;;;;;;;42.67;23.42;;;;;;;7.03;100.00;100575.00;1693251;84;26174;-85
2022/11/07 05:20:36;;;;;;;46.58;25.43;;;;;;;7.07;100.00;100574.69;1693063;84;26490;-85
2022/11/07 05:23:17;;;;;;;46.55;25.48;;;;;;;7.09;100.00;100572.69;1685267;84;25811;-85
2022/11/07 05:25:50;;;;;;;47.58;24.60;;;;;;;7.10;100.00;100573.03;1687395;84;25888;-86
2022/11/07 05:28:24;;;;;;;50.17;25.90;;;;;;;7.10;100.00;100574.36;1687618;84;27458;-85
2022/11/07 05:30:50;;;;;;;42.93;25.23;;;;;;;7.12;100.00;100574.52;1685970;84;25863;-85
2022/11/07 05:33:17;;;;;;;43.98;25.17;;;;;;;7.14;100.00;100575.20;1690678;84;25863;-85
2022/11/07 05:35:45;;;;;;;43.02;25.08;;;;;;;7.17;100.00;100581.52;1689404;84;25806;-85
2022/11/07 05:38:12;;;;;;;46.48;25.25;;;;;;;7.20;100.00;100586.53;1681878;84;25798;-85
2022/11/07 05:40:40;;;;;;;44.85;25.30;;;;;;;7.24;100.00;100590.52;1684210;84;27466;-85
2022/11/07 05:43:10;;;;;;;46.10;25.70;;;;;;;7.26;100.00;100597.02;1692911;84;25826;-85
2022/11/07 05:45:37;;;;;;;45.73;25.77;;;;;;;7.27;100.00;100592.84;1693002;84;25926;-85
2022/11/07 05:48:08;;;;;;;39.05;23.47;;;;;;;7.30;100.00;100599.67;1686487;83;25849;-85
2022/11/07 05:50:35;;;;;;;41.45;23.07;;;;;;;7.32;100.00;100601.18;1688604;84;25855;-85
2022/11/07 05:53:03;;;;;;;44.77;25.45;;;;;;;7.34;100.00;100596.52;1693364;84;27380;-86
2022/11/07 05:55:29;;;;;;;43.33;24.77;;;;;;;7.36;100.00;100603.84;1691837;84;25356;-85
2022/11/07 05:57:55;;;;;;;41.37;24.02;;;;;;;7.38;100.00;100605.84;1691291;84;25738;-85
2022/11/07 06:00:22;;;;;;;41.63;24.18;;;;;;;7.42;100.00;100603.70;1689941;84;26164;-85
2022/11/07 06:02:59;;;;;;;41.92;24.20;;;;;;;7.44;100.00;100597.17;1692871;84;25899;-85
2022/11/07 06:05:26;;;;;;;41.92;24.15;;;;;;;7.48;100.00;100599.87;1687661;83;28368;-85
2022/11/07 06:07:53;;;;;;;46.10;24.23;;;;;;;7.50;100.00;100605.86;1692257;84;25895;-85
2022/11/07 06:10:19;;;;;;;39.00;22.25;;;;;;;7.53;100.00;100600.67;1687386;84;25828;-85
2022/11/07 06:12:46;;;;;;;39.58;22.77;;;;;;;7.56;100.00;100595.02;1684713;84;25885;-85
2022/11/07 06:15:12;;;;;;;47.20;24.90;;;;;;;7.59;100.00;100592.03;1691866;84;25777;-84
2022/11/07 06:17:39;;;;;;;41.00;24.02;;;;;;;7.63;100.00;100585.36;1694590;83;27481;-85
2022/11/07 06:20:06;;;;;;;43.98;25.15;;;;;;;7.65;100.00;100581.53;1692436;84;26187;-85
2022/11/07 06:22:32;;;;;;;43.10;23.77;;;;;;;7.70;100.00;100595.66;1688122;84;25823;-85
2022/11/07 06:24:59;;;;;;;43.13;24.60;;;;;;;7.72;100.00;100598.98;1692935;84;25848;-85
2022/11/07 06:27:25;;;;;;;40.25;24.65;;;;;;;7.75;100.00;100610.17;1691655;84;25798;-85
2022/11/07 06:29:51;;;;;;;38.65;23.57;;;;;;;7.79;100.00;100607.99;1680920;84;27460;-85
2022/11/07 06:32:17;;;;;;;43.45;24.87;;;;;;;7.82;100.00;100609.49;1693416;84;25799;-85
2022/11/07 06:34:44;;;;;;;40.10;24.35;;;;;;;7.84;100.00;100603.00;1711655;83;25828;-85
2022/11/07 06:37:10;;;;;;;40.88;23.02;;;;;;;7.88;100.00;100604.81;1681473;84;25830;-85
2022/11/07 06:39:36;;;;;;;38.88;24.10;;;;;;;7.90;100.00;100612.98;1688759;84;25812;-85
2022/11/07 06:42:03;;;;;;;43.80;23.50;;;;;;;7.92;100.00;100607.47;1681850;84;28315;-85
2022/11/07 06:44:29;;;;;;;40.10;23.70;;;;;;;7.97;100.00;100607.80;1677986;84;25828;-85
2022/11/07 06:46:55;;;;;;;35.75;21.95;;;;;;;8.01;100.00;100618.46;1684810;84;26556;-85
2022/11/07 06:49:22;;;;;;;37.85;22.65;;;;;;;8.03;100.00;100619.13;1650272;84;26116;-85
2022/11/07 06:51:48;;;;;;;37.45;21.65;;;;;;;8.06;100.00;100625.47;1714046;83;25989;-85
2022/11/07 06:54:15;;;;;;;34.88;22.32;;;;;;;8.07;100.00;100609.77;1702894;84;27538;-86
2022/11/07 06:56:41;;;;;;;38.23;22.58;;;;;;;8.10;100.00;100610.78;1701845;84;25760;-85
2022/11/07 06:59:07;;;;;;;40.35;24.95;;;;;;;8.12;100.00;100607.44;1701386;84;25831;-85
2022/11/07 07:01:33;;;;;;;41.30;23.12;;;;;;;8.17;100.00;100610.44;1698446;84;25781;-85
2022/11/07 07:04:00;;;;;;;37.00;21.27;;;;;;;8.20;100.00;100615.41;1699413;84;26505;-85
2022/11/07 07:06:26;;;;;;;37.90;23.45;;;;;;;8.23;100.00;100613.23;1702146;84;27534;-85
2022/11/07 07:08:53;;;;;;;37.03;22.75;;;;;;;8.26;100.00;100608.09;1703420;84;25878;-85
2022/11/07 07:11:19;;;;;;;33.48;21.80;;;;;;;8.29;100.00;100609.93;1697235;84;25765;-85
2022/11/07 07:13:46;;;;;;;40.05;24.40;;;;;;;8.33;100.00;100608.58;1701069;84;26916;-85
2022/11/07 07:16:12;;;;;;;41.68;23.83;;;;;;;8.37;100.00;100607.72;1699697;84;25926;-84
2022/11/07 07:18:38;;;;;;;38.05;22.40;;;;;;;8.40;100.00;100602.05;1692034;84;27466;-86
2022/11/07 07:21:11;;;;;;;38.95;23.05;;;;;;;8.44;100.00;100603.37;1703519;84;25820;-86
2022/11/07 07:23:37;;;;;;;43.45;26.23;;;;;;;8.47;100.00;100600.33;1703299;84;25707;-85
2022/11/07 07:26:07;;;;;;;38.48;24.05;;;;;;;8.51;100.00;100601.16;1694469;84;25620;-85
2022/11/07 07:28:36;;;;;;;38.70;23.77;;;;;;;8.55;100.00;100601.12;1701483;84;25807;-84
2022/11/07 07:31:19;;;;;;;39.30;24.47;;;;;;;8.61;100.00;100604.97;1689809;84;27464;-84
2022/11/07 07:33:47;;;;;;;37.20;21.70;;;;;;;8.65;100.00;100605.44;1694900;84;25834;-85
2022/11/07 07:36:14;;;;;;;48.17;30.90;;;;;;;8.70;100.00;100600.42;1695215;84;26143;-85
2022/11/07 07:38:41;;;;;;;39.23;23.70;;;;;;;8.73;100.00;100600.05;1703667;84;25790;-85
2022/11/07 07:41:07;;;;;;;46.95;29.27;;;;;;;8.77;100.00;100600.05;1695812;84;26376;-84
2022/11/07 07:43:34;;;;;;;44.80;26.82;;;;;;;8.80;100.00;100599.19;1700885;84;27447;-85
2022/11/07 07:46:03;;;;;;;45.12;26.77;;;;;;;8.84;100.00;100601.00;1710634;83;25943;-83
2022/11/07 07:48:30;;;;;;;37.83;23.38;;;;;;;8.87;100.00;100597.48;1701410;83;25717;-84
2022/11/07 07:50:57;;;;;;;46.48;32.53;;;;;;;8.89;100.00;100599.48;1720566;82;25934;-84
2022/11/07 07:53:24;;;;;;;44.27;25.37;;;;;;;8.94;100.00;100590.94;1725988;82;25843;-85
2022/11/07 07:55:57;;;;;;;37.15;23.15;;;;;;;8.97;100.00;100595.91;1685638;84;27447;-85
2022/11/07 07:58:27;;;;;;;38.28;23.80;;;;;;;9.00;100.00;100596.38;1721851;82;25942;-85
2022/11/07 08:00:58;;;;;;;35.08;22.30;;;;;;;9.04;100.00;100591.04;1737132;82;25844;-85
2022/11/07 08:03:26;;;;;;;43.38;25.17;;;;;;;9.08;100.00;100588.34;1699052;83;25821;-85
2022/11/07 08:05:56;;;;;;;34.18;23.42;;;;;;;9.13;100.00;100600.64;1701157;82;25791;-85
2022/11/07 08:08:24;;;;;;;41.42;23.32;;;;;;;9.16;100.00;100598.12;1717140;82;27442;-85
2022/11/07 08:10:54;;;;;;;39.50;23.60;;;;;;;9.20;100.00;100600.77;1702245;83;25320;-85
2022/11/07 08:13:24;;;;;;;40.60;24.12;;;;;;;9.23;100.00;100601.27;1691366;84;26100;-85
2022/11/07 08:15:52;;;;;;;42.67;25.60;;;;;;;9.25;100.00;100599.24;1694533;84;25774;-85
2022/11/07 08:18:20;;;;;;;40.20;23.20;;;;;;;9.29;100.00;100593.02;1693329;84;25308;-85
2022/11/07 08:20:52;;;;;;;39.80;24.37;;;;;;;9.32;100.00;100588.67;1669767;84;27463;-85
2022/11/07 08:23:20;;;;;;;40.60;23.00;;;;;;;9.34;100.00;100590.13;1697689;84;26044;-85
2022/11/07 08:25:56;;;;;;;41.45;26.97;;;;;;;9.39;100.00;100587.45;1693848;82;25829;-85
2022/11/07 08:28:26;;;;;;;36.85;23.22;;;;;;;9.43;100.00;100588.75;1697117;84;26431;-84
2022/11/07 08:31:09;;;;;;;42.35;23.95;;;;;;;9.46;100.00;100583.87;1689796;84;25806;-84
2022/11/07 08:33:36;;;;;;;41.00;24.32;;;;;;;9.51;100.00;100585.50;1692501;84;27443;-84
2022/11/07 08:36:04;;;;;;;40.60;23.95;;;;;;;9.57;100.00;100588.79;1695606;84;25820;-85
2022/11/07 08:38:33;;;;;;;41.20;25.02;;;;;;;9.62;100.00;100585.58;1681863;84;26120;-84
2022/11/07 08:41:00;;;;;;;44.03;26.85;;;;;;;9.66;100.00;100581.03;1690357;83;25843;-84
2022/11/07 08:43:27;;;;;;;37.33;23.90;;;;;;;9.73;100.00;100581.13;1695226;83;25725;-84
2022/11/07 08:45:54;;;;;;;37.00;23.87;;;;;;;9.77;100.00;100579.75;1696478;84;27451;-84
2022/11/07 08:48:22;;;;;;;37.30;22.93;;;;;;;9.82;100.00;100583.53;1675494;84;25824;-84
2022/11/07 08:50:54;;;;;;;38.13;21.35;;;;;;;9.86;100.00;100579.98;1692255;84;25608;-84
2022/11/07 08:53:22;;;;;;;36.85;22.70;;;;;;;9.90;100.00;100586.13;1693899;84;26879;-84
2022/11/07 08:55:48;;;;;;;46.50;28.00;;;;;;;9.93;100.00;100578.23;1692937;84;25906;-84
2022/11/07 08:58:16;;;;;;;75.12;49.93;;;;;;;9.95;100.00;100577.55;1665132;84;46866;-84
2022/11/07 09:00:43;;;;;;;79.05;56.40;;;;;;;9.99;100.00;100577.50;1691309;84;26215;-84
2022/11/07 09:03:12;;;;;;;44.88;27.07;;;;;;;10.01;100.00;100572.30;1689187;84;26057;-83
2022/11/07 09:05:39;;;;;;;35.63;23.55;;;;;;;10.03;100.00;100579.63;1692654;83;25801;-83
2022/11/07 09:08:05;;;;;;;36.33;22.50;;;;;;;10.05;100.00;100585.63;1693759;84;25841;-83
2022/11/07 09:10:32;;;;;;;37.80;25.05;;;;;;;10.08;100.00;100590.63;1695657;84;27515;-84
2022/11/07 09:12:58;;;;;;;30.37;19.95;;;;;;;10.11;100.00;100585.95;1696096;84;25886;-84
2022/11/07 09:15:24;;;;;;;30.08;18.52;;;;;;;10.12;100.00;100584.92;1689323;84;25393;-84
2022/11/07 09:17:51;;;;;;;33.85;20.75;;;;;;;10.12;100.00;100579.07;1707942;83;25818;-84
2022/11/07 09:20:17;;;;;;;30.15;19.12;;;;;;;10.15;100.00;100576.54;1710293;83;26418;-83
2022/11/07 09:22:45;;;;;;;32.55;19.45;;;;;;;10.17;100.00;100574.01;1703124;82;27471;-84
2022/11/07 09:25:12;;;;;;;28.60;19.32;;;;;;;10.20;100.00;100570.14;1705419;83;25838;-83
2022/11/07 09:27:38;;;;;;;33.08;19.25;;;;;;;10.21;100.00;100571.28;1684209;84;26286;-83
2022/11/07 09:30:06;;;;;;;29.42;18.35;;;;;;;10.24;100.00;100567.41;1677442;84;25869;-83
2022/11/07 09:32:32;;;;;;;36.42;19.98;;;;;;;10.29;100.00;100566.32;1682592;84;25781;-84
2022/11/07 09:34:59;;;;;;;31.77;19.15;;;;;;;10.32;100.00;100560.11;1690607;84;27448;-82
2022/11/07 09:37:27;;;;;;;29.52;19.70;;;;;;;10.35;100.00;100562.39;1689305;84;25352;-83
2022/11/07 09:39:53;;;;;;;34.30;19.45;;;;;;;10.40;100.00;100561.34;1682601;84;26443;-83
2022/11/07 09:42:49;;;;;;;29.70;18.77;;;;;;;10.48;100.00;100562.57;1688288;84;25784;-78
2022/11/07 09:45:16;;;;;;;182.85;85.03;;;;;;;10.53;100.00;100561.52;1645461;84;26669;-86
2022/11/07 09:47:59;;;;;;;169.13;93.72;;;;;;;10.55;100.00;100551.44;1687724;84;27605;-87
2022/11/07 09:50:41;;;;;;;125.12;72.37;;;;;;;10.59;100.00;100550.55;1675940;84;25710;-86
2022/11/07 09:53:30;;;;;;;84.97;49.73;;;;;;;10.62;100.00;100542.98;1690421;84;26458;-88
2022/11/07 09:56:00;;;;;;;49.15;31.48;;;;;;;10.65;100.00;100554.64;1716698;82;26618;-85
2022/11/07 09:58:46;;;;;;;37.25;23.75;;;;;;;10.67;100.00;100553.94;1669811;83;25292;-85
2022/11/07 10:01:16;;;;;;;33.18;20.97;;;;;;;10.70;100.00;100560.27;1711326;83;27494;-86
2022/11/07 10:03:43;;;;;;;29.57;18.83;;;;;;;10.72;100.00;100554.72;1688213;84;26255;-86
2022/11/07 10:06:21;;;;;;;27.73;17.25;;;;;;;10.71;100.00;100554.42;1708645;83;26361;-88
2022/11/07 10:09:04;;;;;;;31.27;19.75;;;;;;;10.72;100.00;100552.05;1699617;83;26278;-83
2022/11/07 10:11:44;;;;;;;32.28;19.40;;;;;;;10.76;100.00;100547.96;1701701;84;25837;-83
2022/11/07 10:14:28;;;;;;;27.67;18.20;;;;;;;10.78;100.00;100551.28;1701375;84;27473;-81
2022/11/07 10:17:05;;;;;;;27.65;17.40;;;;;;;10.82;100.00;100553.40;1699184;84;26009;-87
2022/11/07 10:20:08;;;;;;;28.67;18.25;;;;;;;10.84;100.00;100558.59;1693548;84;26379;-81
2022/11/07 10:22:51;;;;;;;31.45;17.42;;;;;;;10.85;100.00;100557.55;1701505;84;26481;-80
2022/11/07 10:25:32;;;;;;;28.73;16.57;;;;;;;10.88;100.00;100560.37;1708235;82;26124;-83
2022/11/07 10:28:07;;;;;;;25.27;17.23;;;;;;;10.90;100.00;100552.97;1685056;84;27730;-79
2022/11/07 10:30:34;;;;;;;27.60;17.07;;;;;;;10.91;100.00;100549.25;1709465;82;26361;-83
2022/11/07 10:33:11;;;;;;;27.25;16.40;;;;;;;10.91;100.00;100549.25;1720542;82;25832;-84
2022/11/07 10:35:43;;;;;;;28.38;17.67;;;;;;;10.91;100.00;100542.05;1715773;82;25928;-83
2022/11/07 10:38:23;;;;;;;28.75;16.75;;;;;;;10.91;100.00;100543.39;1715040;83;25831;-80
2022/11/07 10:40:51;;;;;;;33.90;19.48;;;;;;;10.91;99.62;100544.73;1702149;83;27470;-83
2022/11/07 10:43:32;;;;;;;24.37;15.48;;;;;;;10.93;99.82;100552.60;1709244;83;26478;-82
2022/11/07 10:46:02;;;;;;;26.35;16.60;;;;;;;10.97;99.24;100548.52;1704369;83;26101;-82
2022/11/07 10:48:28;;;;;;;22.42;14.13;;;;;;;10.97;98.03;100547.98;1706336;83;26032;-85
2022/11/07 10:50:56;;;;;;;23.62;15.35;;;;;;;10.97;97.42;100549.32;1704153;83;25576;-84
2022/11/07 10:53:25;;;;;;;20.80;13.98;;;;;;;10.98;96.56;100547.48;1686722;84;27480;-84
2022/11/07 10:55:54;;;;;;;21.60;14.58;;;;;;;10.96;96.06;100547.68;1699780;83;25785;-86
2022/11/07 10:58:28;;;;;;;23.62;13.95;;;;;;;10.97;96.07;100545.84;1711284;83;26328;-86
2022/11/07 11:01:01;;;;;;;26.25;13.98;;;;;;;10.98;95.73;100548.82;1701599;83;25915;-85
2022/11/07 11:03:43;;;;;;;25.27;14.28;;;;;;;10.99;95.60;100551.30;1691282;83;25858;-84
2022/11/07 11:06:29;;;;;;;24.10;15.58;;;;;;;11.00;94.75;100547.62;1703546;83;27428;-85
2022/11/07 11:08:57;;;;;;;20.77;12.70;;;;;;;11.01;94.75;100545.77;1700671;83;25955;-87
2022/11/07 11:11:31;;;;;;;27.67;13.62;;;;;;;11.01;94.32;100543.93;1680254;84;25752;-84
2022/11/07 11:14:05;;;;;;;22.20;13.40;;;;;;;11.03;94.40;100544.56;1695083;82;25955;-82
2022/11/07 11:16:36;;;;;;;31.73;19.90;;;;;;;11.06;94.01;100550.03;1709744;82;25879;-81
2022/11/07 11:19:03;;;;;;;40.60;25.85;;;;;;;11.07;93.56;100536.46;1707647;83;27486;-83
2022/11/07 11:21:42;;;;;;;28.77;16.30;;;;;;;11.08;93.61;100543.47;1717648;83;25794;-85
2022/11/07 11:24:31;;;;;;;21.75;14.23;;;;;;;11.11;93.46;100544.44;1719272;83;25749;-85
2022/11/07 11:27:14;;;;;;;19.57;11.00;;;;;;;11.17;93.64;100553.55;1711874;83;25984;-85
2022/11/07 11:30:07;;;;;;;18.82;10.88;;;;;;;11.18;92.03;100555.22;1717185;82;25767;-85
2022/11/07 11:32:53;;;;;;;20.08;10.70;;;;;;;11.17;91.76;100563.77;1708936;82;27494;-81